sensor_id;sensor_type;location;lat;lon;timestamp;pressure;altitude;pressure_sealevel;temperature;humidity
27294;BME280;14785;52.556;13.430;2023-04-06T00:01:12;101275.19;;;7.61;100.00
27294;BME280;14785;52.556;13.430;2023-04-06T00:03:37;101283.00;;;7.51;100.00
27294;BME280;14785;52.556;13.430;2023-04-06T00:06:03;101281.81;;;7.44;100.00
27294;BME280;14785;52.556;13.430;2023-04-06T00:08:29;101275.28;;;7.70;100.00
27294;BME280;14785;52.556;13.430;2023-04-06T00:10:54;101271.91;;;7.79;100.00
27294;BME280;14785;52.556;13.430;2023-04-06T00:13:20;101272.19;;;7.43;100.00
27294;BME280;14785;52.556;13.430;2023-04-06T00:15:46;101271.22;;;7.22;100.00
27294;BME280;14785;52.556;13.430;2023-04-06T00:18:14;101261.81;;;7.51;100.00
27294;BME280;14785;52.556;13.430;2023-04-06T00:20:40;101264.38;;;7.42;100.00
27294;BME280;14785;52.556;13.430;2023-04-06T00:23:05;101256.53;;;7.51;100.00
27294;BME280;14785;52.556;13.430;2023-04-06T00:25:31;101262.81;;;7.28;100.00
27294;BME280;14785;52.556;13.430;2023-04-06T00:27:56;101257.75;;;7.36;100.00
27294;BME280;14785;52.556;13.430;2023-04-06T00:30:22;101264.13;;;8.10;100.00
27294;BME280;14785;52.556;13.430;2023-04-06T00:32:47;101263.41;;;7.97;100.00
27294;BME280;14785;52.556;13.430;2023-04-06T00:35:13;101266.03;;;8.08;100.00
27294;BME280;14785;52.556;13.430;2023-04-06T00:37:38;101258.03;;;8.30;100.00
27294;BME280;14785;52.556;13.430;2023-04-06T00:40:04;101265.28;;;8.17;100.00
27294;BME280;14785;52.556;13.430;2023-04-06T00:42:30;101258.72;;;8.63;100.00
27294;BME280;14785;52.556;13.430;2023-04-06T00:44:58;101255.75;;;8.25;100.00
27294;BME280;14785;52.556;13.430;2023-04-06T00:47:25;101248.28;;;8.71;100.00
27294;BME280;14785;52.556;13.430;2023-04-06T00:49:51;101258.59;;;8.65;100.00
27294;BME280;14785;52.556;13.430;2023-04-06T00:52:17;101254.94;;;8.45;100.00
27294;BME280;14785;52.556;13.430;2023-04-06T00:54:43;101255.34;;;8.41;100.00
27294;BME280;14785;52.556;13.430;2023-04-06T00:57:09;101246.88;;;8.47;100.00
27294;BME280;14785;52.556;13.430;2023-04-06T00:59:35;101254.41;;;7.88;100.00
27294;BME280;14785;52.556;13.430;2023-04-06T01:02:00;101252.38;;;7.92;100.00
27294;BME280;14785;52.556;13.430;2023-04-06T01:04:26;101249.88;;;7.79;100.00
27294;BME280;14785;52.556;13.430;2023-04-06T01:06:52;101249.25;;;7.75;100.00
27294;BME280;14785;52.556;13.430;2023-04-06T01:09:18;101247.09;;;7.80;100.00
27294;BME280;14785;52.556;13.430;2023-04-06T01:11:43;101244.84;;;8.08;100.00
27294;BME280;14785;52.556;13.430;2023-04-06T01:14:09;101248.50;;;7.96;100.00
27294;BME280;14785;52.556;13.430;2023-04-06T01:16:35;101245.50;;;7.89;100.00
27294;BME280;14785;52.556;13.430;2023-04-06T01:19:01;101243.31;;;7.94;100.00
27294;BME280;14785;52.556;13.430;2023-04-06T01:21:26;101245.75;;;8.18;100.00
27294;BME280;14785;52.556;13.430;2023-04-06T01:23:52;101242.53;;;8.66;100.00
27294;BME280;14785;52.556;13.430;2023-04-06T01:26:17;101247.63;;;8.79;100.00
27294;BME280;14785;52.556;13.430;2023-04-06T01:28:43;101250.53;;;8.96;100.00
27294;BME280;14785;52.556;13.430;2023-04-06T01:31:11;101245.31;;;8.65;100.00
27294;BME280;14785;52.556;13.430;2023-04-06T01:33:36;101253.72;;;8.70;100.00
27294;BME280;14785;52.556;13.430;2023-04-06T01:36:03;101247.28;;;8.31;100.00
27294;BME280;14785;52.556;13.430;2023-04-06T01:38:28;101245.75;;;8.29;100.00
27294;BME280;14785;52.556;13.430;2023-04-06T01:40:54;101248.47;;;8.38;100.00
27294;BME280;14785;52.556;13.430;2023-04-06T01:43:19;101253.78;;;8.07;100.00
27294;BME280;14785;52.556;13.430;2023-04-06T01:45:45;101244.44;;;7.92;100.00
27294;BME280;14785;52.556;13.430;2023-04-06T01:48:11;101256.69;;;7.93;100.00
27294;BME280;14785;52.556;13.430;2023-04-06T01:50:36;101246.59;;;8.18;100.00
27294;BME280;14785;52.556;13.430;2023-04-06T01:53:01;101257.84;;;8.63;100.00
27294;BME280;14785;52.556;13.430;2023-04-06T01:55:27;101252.56;;;8.63;100.00
27294;BME280;14785;52.556;13.430;2023-04-06T01:57:52;101243.63;;;8.23;100.00
27294;BME280;14785;52.556;13.430;2023-04-06T02:00:18;101251.16;;;8.59;100.00
27294;BME280;14785;52.556;13.430;2023-04-06T02:02:43;101241.50;;;8.78;100.00
27294;BME280;14785;52.556;13.430;2023-04-06T02:05:09;101242.66;;;8.65;100.00
27294;BME280;14785;52.556;13.430;2023-04-06T02:07:35;101242.47;;;8.57;100.00
27294;BME280;14785;52.556;13.430;2023-04-06T02:10:00;101243.75;;;8.83;100.00
27294;BME280;14785;52.556;13.430;2023-04-06T02:12:25;101239.72;;;8.88;100.00
27294;BME280;14785;52.556;13.430;2023-04-06T02:14:51;101239.63;;;9.29;100.00
27294;BME280;14785;52.556;13.430;2023-04-06T02:17:16;101253.63;;;9.01;100.00
27294;BME280;14785;52.556;13.430;2023-04-06T02:19:42;101238.72;;;8.80;100.00
27294;BME280;14785;52.556;13.430;2023-04-06T02:22:07;101243.66;;;8.32;100.00
27294;BME280;14785;52.556;13.430;2023-04-06T02:24:33;101246.44;;;8.31;100.00
27294;BME280;14785;52.556;13.430;2023-04-06T02:26:58;101237.03;;;8.38;100.00
27294;BME280;14785;52.556;13.430;2023-04-06T02:29:24;101239.53;;;8.08;100.00
27294;BME280;14785;52.556;13.430;2023-04-06T02:31:50;101245.09;;;8.05;100.00
27294;BME280;14785;52.556;13.430;2023-04-06T02:34:16;101254.03;;;8.04;100.00
27294;BME280;14785;52.556;13.430;2023-04-06T02:36:46;101240.81;;;7.93;100.00
27294;BME280;14785;52.556;13.430;2023-04-06T02:39:14;101245.69;;;8.08;100.00
27294;BME280;14785;52.556;13.430;2023-04-06T02:41:39;101246.75;;;8.06;100.00
27294;BME280;14785;52.556;13.430;2023-04-06T02:44:08;101238.38;;;8.01;100.00
27294;BME280;14785;52.556;13.430;2023-04-06T02:46:34;101233.97;;;7.79;100.00
27294;BME280;14785;52.556;13.430;2023-04-06T02:49:00;101246.09;;;7.28;100.00
27294;BME280;14785;52.556;13.430;2023-04-06T02:51:26;101231.91;;;7.18;100.00
27294;BME280;14785;52.556;13.430;2023-04-06T02:53:52;101237.78;;;6.99;100.00
27294;BME280;14785;52.556;13.430;2023-04-06T02:56:17;101248.81;;;6.71;100.00
27294;BME280;14785;52.556;13.430;2023-04-06T02:58:43;101242.25;;;6.99;100.00
27294;BME280;14785;52.556;13.430;2023-04-06T03:01:08;101250.16;;;6.88;100.00
27294;BME280;14785;52.556;13.430;2023-04-06T03:03:34;101246.22;;;7.04;100.00
27294;BME280;14785;52.556;13.430;2023-04-06T03:05:59;101249.13;;;7.12;100.00
27294;BME280;14785;52.556;13.430;2023-04-06T03:08:25;101255.84;;;7.16;100.00
27294;BME280;14785;52.556;13.430;2023-04-06T03:10:51;101257.19;;;7.11;100.00
27294;BME280;14785;52.556;13.430;2023-04-06T03:13:17;101254.88;;;7.06;100.00
27294;BME280;14785;52.556;13.430;2023-04-06T03:15:42;101261.59;;;6.88;100.00
27294;BME280;14785;52.556;13.430;2023-04-06T03:18:08;101254.06;;;7.17;100.00
27294;BME280;14785;52.556;13.430;2023-04-06T03:20:33;101252.47;;;6.92;100.00
27294;BME280;14785;52.556;13.430;2023-04-06T03:22:59;101253.31;;;7.04;100.00
27294;BME280;14785;52.556;13.430;2023-04-06T03:25:24;101260.31;;;6.59;100.00
27294;BME280;14785;52.556;13.430;2023-04-06T03:27:50;101257.66;;;6.48;100.00
27294;BME280;14785;52.556;13.430;2023-04-06T03:30:15;101255.97;;;6.47;100.00
27294;BME280;14785;52.556;13.430;2023-04-06T03:32:44;101263.59;;;6.28;100.00
27294;BME280;14785;52.556;13.430;2023-04-06T03:35:10;101260.06;;;5.93;100.00
27294;BME280;14785;52.556;13.430;2023-04-06T03:37:35;101264.59;;;6.38;100.00
27294;BME280;14785;52.556;13.430;2023-04-06T03:40:01;101275.03;;;6.74;100.00
27294;BME280;14785;52.556;13.430;2023-04-06T03:42:28;101271.53;;;6.28;100.00
27294;BME280;14785;52.556;13.430;2023-04-06T03:44:53;101267.28;;;6.49;100.00
27294;BME280;14785;52.556;13.430;2023-04-06T03:47:18;101269.97;;;6.71;100.00
27294;BME280;14785;52.556;13.430;2023-04-06T03:49:44;101275.50;;;6.68;100.00
27294;BME280;14785;52.556;13.430;2023-04-06T03:52:10;101273.81;;;6.67;100.00
27294;BME280;14785;52.556;13.430;2023-04-06T03:54:35;101268.81;;;7.08;100.00
27294;BME280;14785;52.556;13.430;2023-04-06T03:57:01;101276.53;;;7.00;100.00
27294;BME280;14785;52.556;13.430;2023-04-06T03:59:26;101283.22;;;6.82;100.00
27294;BME280;14785;52.556;13.430;2023-04-06T04:01:52;101282.84;;;6.41;100.00
27294;BME280;14785;52.556;13.430;2023-04-06T04:04:17;101284.69;;;6.52;100.00
27294;BME280;14785;52.556;13.430;2023-04-06T04:06:43;101284.16;;;6.70;100.00
27294;BME280;14785;52.556;13.430;2023-04-06T04:09:09;101283.09;;;6.38;100.00
27294;BME280;14785;52.556;13.430;2023-04-06T04:11:34;101290.84;;;6.52;100.00
27294;BME280;14785;52.556;13.430;2023-04-06T04:14:00;101293.78;;;6.13;100.00
27294;BME280;14785;52.556;13.430;2023-04-06T04:16:25;101290.19;;;6.14;100.00
27294;BME280;14785;52.556;13.430;2023-04-06T04:18:50;101287.22;;;5.95;100.00
27294;BME280;14785;52.556;13.430;2023-04-06T04:21:16;101288.50;;;5.77;100.00
27294;BME280;14785;52.556;13.430;2023-04-06T04:23:41;101289.25;;;5.43;100.00
27294;BME280;14785;52.556;13.430;2023-04-06T04:26:07;101287.72;;;6.00;100.00
27294;BME280;14785;52.556;13.430;2023-04-06T04:28:32;101280.03;;;5.48;100.00
27294;BME280;14785;52.556;13.430;2023-04-06T04:30:58;101280.47;;;5.78;100.00
27294;BME280;14785;52.556;13.430;2023-04-06T04:33:23;101285.66;;;5.93;100.00
27294;BME280;14785;52.556;13.430;2023-04-06T04:35:48;101289.81;;;6.08;100.00
27294;BME280;14785;52.556;13.430;2023-04-06T04:38:14;101287.09;;;5.97;100.00
27294;BME280;14785;52.556;13.430;2023-04-06T04:40:39;101286.44;;;6.06;100.00
27294;BME280;14785;52.556;13.430;2023-04-06T04:43:05;101288.56;;;6.01;100.00
27294;BME280;14785;52.556;13.430;2023-04-06T04:45:30;101287.28;;;6.06;100.00
27294;BME280;14785;52.556;13.430;2023-04-06T04:47:56;101296.91;;;6.18;100.00
27294;BME280;14785;52.556;13.430;2023-04-06T04:50:21;101287.53;;;6.14;100.00
27294;BME280;14785;52.556;13.430;2023-04-06T04:52:47;101290.69;;;6.19;100.00
27294;BME280;14785;52.556;13.430;2023-04-06T04:55:13;101293.09;;;6.22;100.00
27294;BME280;14785;52.556;13.430;2023-04-06T04:57:38;101294.06;;;6.56;100.00
27294;BME280;14785;52.556;13.430;2023-04-06T05:00:04;101301.91;;;6.68;100.00
27294;BME280;14785;52.556;13.430;2023-04-06T05:02:30;101307.50;;;6.53;100.00
27294;BME280;14785;52.556;13.430;2023-04-06T05:04:55;101299.00;;;6.60;100.00
27294;BME280;14785;52.556;13.430;2023-04-06T05:07:21;101300.72;;;6.61;100.00
27294;BME280;14785;52.556;13.430;2023-04-06T05:09:46;101301.25;;;6.88;100.00
27294;BME280;14785;52.556;13.430;2023-04-06T05:12:12;101298.31;;;6.69;100.00
27294;BME280;14785;52.556;13.430;2023-04-06T05:14:38;101304.56;;;6.68;100.00
27294;BME280;14785;52.556;13.430;2023-04-06T05:17:03;101305.78;;;6.64;100.00
27294;BME280;14785;52.556;13.430;2023-04-06T05:19:29;101300.28;;;6.20;100.00
27294;BME280;14785;52.556;13.430;2023-04-06T05:21:55;101304.34;;;6.13;100.00
27294;BME280;14785;52.556;13.430;2023-04-06T05:24:21;101303.69;;;6.22;100.00
27294;BME280;14785;52.556;13.430;2023-04-06T05:26:47;101303.91;;;6.88;100.00
27294;BME280;14785;52.556;13.430;2023-04-06T05:29:13;101312.28;;;6.71;100.00
27294;BME280;14785;52.556;13.430;2023-04-06T05:31:38;101308.19;;;6.78;100.00
27294;BME280;14785;52.556;13.430;2023-04-06T05:34:06;101307.38;;;6.43;100.00
27294;BME280;14785;52.556;13.430;2023-04-06T05:36:34;101313.16;;;6.25;100.00
27294;BME280;14785;52.556;13.430;2023-04-06T05:39:00;101314.47;;;6.19;100.00
27294;BME280;14785;52.556;13.430;2023-04-06T05:41:25;101314.69;;;6.40;100.00
27294;BME280;14785;52.556;13.430;2023-04-06T05:43:51;101318.72;;;6.56;100.00
27294;BME280;14785;52.556;13.430;2023-04-06T05:46:18;101324.13;;;6.31;100.00
27294;BME280;14785;52.556;13.430;2023-04-06T05:48:43;101319.16;;;6.85;100.00
27294;BME280;14785;52.556;13.430;2023-04-06T05:51:10;101316.19;;;7.33;100.00
27294;BME280;14785;52.556;13.430;2023-04-06T05:53:35;101316.84;;;6.46;100.00
27294;BME280;14785;52.556;13.430;2023-04-06T05:56:01;101320.81;;;6.86;100.00
27294;BME280;14785;52.556;13.430;2023-04-06T05:58:27;101315.53;;;6.86;100.00
27294;BME280;14785;52.556;13.430;2023-04-06T06:00:57;101318.06;;;6.87;100.00
27294;BME280;14785;52.556;13.430;2023-04-06T06:03:23;101321.00;;;7.06;100.00
27294;BME280;14785;52.556;13.430;2023-04-06T06:05:48;101316.19;;;7.33;100.00
27294;BME280;14785;52.556;13.430;2023-04-06T06:08:13;101330.41;;;7.43;100.00
27294;BME280;14785;52.556;13.430;2023-04-06T06:10:39;101317.41;;;7.51;100.00
27294;BME280;14785;52.556;13.430;2023-04-06T06:13:05;101319.78;;;7.99;100.00
27294;BME280;14785;52.556;13.430;2023-04-06T06:15:31;101321.94;;;7.94;100.00
27294;BME280;14785;52.556;13.430;2023-04-06T06:17:56;101322.72;;;7.40;100.00
27294;BME280;14785;52.556;13.430;2023-04-06T06:20:22;101328.22;;;7.26;100.00
27294;BME280;14785;52.556;13.430;2023-04-06T06:22:47;101326.47;;;6.81;100.00
27294;BME280;14785;52.556;13.430;2023-04-06T06:25:13;101322.72;;;7.40;100.00
27294;BME280;14785;52.556;13.430;2023-04-06T06:27:38;101329.22;;;6.80;100.00
27294;BME280;14785;52.556;13.430;2023-04-06T06:30:04;101333.03;;;7.10;100.00
27294;BME280;14785;52.556;13.430;2023-04-06T06:32:30;101329.56;;;6.64;100.00
27294;BME280;14785;52.556;13.430;2023-04-06T06:34:56;101321.59;;;7.10;100.00
27294;BME280;14785;52.556;13.430;2023-04-06T06:37:21;101327.00;;;6.97;100.00
27294;BME280;14785;52.556;13.430;2023-04-06T06:39:47;101324.56;;;6.83;100.00
27294;BME280;14785;52.556;13.430;2023-04-06T06:42:12;101321.94;;;7.05;100.00
27294;BME280;14785;52.556;13.430;2023-04-06T06:44:38;101322.59;;;7.75;100.00
27294;BME280;14785;52.556;13.430;2023-04-06T06:47:03;101326.81;;;7.44;100.00
27294;BME280;14785;52.556;13.430;2023-04-06T06:49:29;101330.78;;;7.39;100.00
27294;BME280;14785;52.556;13.430;2023-04-06T06:51:54;101322.59;;;7.53;100.00
27294;BME280;14785;52.556;13.430;2023-04-06T06:54:20;101330.72;;;8.48;100.00
27294;BME280;14785;52.556;13.430;2023-04-06T06:56:45;101334.84;;;8.93;100.00
27294;BME280;14785;52.556;13.430;2023-04-06T06:59:11;101330.69;;;9.00;100.00
27294;BME280;14785;52.556;13.430;2023-04-06T07:01:36;101334.19;;;8.17;100.00
27294;BME280;14785;52.556;13.430;2023-04-06T07:04:02;101326.16;;;8.50;100.00
27294;BME280;14785;52.556;13.430;2023-04-06T07:06:27;101333.25;;;8.70;100.00
27294;BME280;14785;52.556;13.430;2023-04-06T07:08:53;101336.69;;;8.61;100.00
27294;BME280;14785;52.556;13.430;2023-04-06T07:11:18;101334.84;;;8.93;100.00
27294;BME280;14785;52.556;13.430;2023-04-06T07:13:44;101335.44;;;7.91;100.00
27294;BME280;14785;52.556;13.430;2023-04-06T07:16:09;101331.06;;;8.23;100.00
27294;BME280;14785;52.556;13.430;2023-04-06T07:18:35;101334.28;;;8.26;100.00
27294;BME280;14785;52.556;13.430;2023-04-06T07:21:00;101331.00;;;8.34;100.00
27294;BME280;14785;52.556;13.430;2023-04-06T07:23:26;101333.34;;;9.00;100.00
27294;BME280;14785;52.556;13.430;2023-04-06T07:25:51;101335.19;;;9.29;100.00
27294;BME280;14785;52.556;13.430;2023-04-06T07:28:18;101328.94;;;8.48;100.00
27294;BME280;14785;52.556;13.430;2023-04-06T07:30:44;101334.06;;;8.81;100.00
27294;BME280;14785;52.556;13.430;2023-04-06T07:33:10;101328.44;;;9.16;100.00
27294;BME280;14785;52.556;13.430;2023-04-06T07:35:35;101336.56;;;9.24;100.00
27294;BME280;14785;52.556;13.430;2023-04-06T07:38:02;101334.13;;;9.41;100.00
27294;BME280;14785;52.556;13.430;2023-04-06T07:40:27;101333.84;;;9.65;100.00
27294;BME280;14785;52.556;13.430;2023-04-06T07:42:53;101332.50;;;9.20;100.00
27294;BME280;14785;52.556;13.430;2023-04-06T07:45:19;101331.75;;;9.08;100.00
27294;BME280;14785;52.556;13.430;2023-04-06T07:47:45;101332.75;;;9.17;100.00
27294;BME280;14785;52.556;13.430;2023-04-06T07:50:11;101330.94;;;9.47;100.00
27294;BME280;14785;52.556;13.430;2023-04-06T07:52:37;101328.84;;;9.81;100.00
27294;BME280;14785;52.556;13.430;2023-04-06T07:55:03;101333.28;;;9.11;100.00
27294;BME280;14785;52.556;13.430;2023-04-06T07:57:28;101332.91;;;8.95;100.00
27294;BME280;14785;52.556;13.430;2023-04-06T07:59:54;101331.88;;;9.07;100.00
27294;BME280;14785;52.556;13.430;2023-04-06T08:02:19;101334.50;;;9.27;100.00
27294;BME280;14785;52.556;13.430;2023-04-06T08:04:45;101336.50;;;8.94;100.00
27294;BME280;14785;52.556;13.430;2023-04-06T08:07:10;101334.19;;;9.21;100.00
27294;BME280;14785;52.556;13.430;2023-04-06T08:09:36;101337.19;;;9.07;100.00
27294;BME280;14785;52.556;13.430;2023-04-06T08:12:01;101341.25;;;8.90;100.00
27294;BME280;14785;52.556;13.430;2023-04-06T08:14:27;101339.47;;;8.28;100.00
27294;BME280;14785;52.556;13.430;2023-04-06T08:16:52;101337.63;;;8.71;100.00
27294;BME280;14785;52.556;13.430;2023-04-06T08:19:18;101339.00;;;9.06;100.00
27294;BME280;14785;52.556;13.430;2023-04-06T08:21:44;101338.22;;;8.95;100.00
27294;BME280;14785;52.556;13.430;2023-04-06T08:24:11;101342.03;;;9.92;100.00
27294;BME280;14785;52.556;13.430;2023-04-06T08:26:37;101332.78;;;9.87;100.00
27294;BME280;14785;52.556;13.430;2023-04-06T08:29:03;101341.19;;;9.92;100.00
27294;BME280;14785;52.556;13.430;2023-04-06T08:31:29;101330.28;;;9.95;100.00
27294;BME280;14785;52.556;13.430;2023-04-06T08:33:55;101328.44;;;10.35;100.00
27294;BME280;14785;52.556;13.430;2023-04-06T08:36:21;101331.16;;;10.05;100.00
27294;BME280;14785;52.556;13.430;2023-04-06T08:38:48;101337.41;;;10.34;99.39
27294;BME280;14785;52.556;13.430;2023-04-06T08:41:15;101331.75;;;10.08;100.00
27294;BME280;14785;52.556;13.430;2023-04-06T08:44:14;101330.94;;;10.17;99.00
27294;BME280;14785;52.556;13.430;2023-04-06T08:46:33;101333.22;;;10.50;100.00
27294;BME280;14785;52.556;13.430;2023-04-06T08:49:02;101330.69;;;10.77;96.01
27294;BME280;14785;52.556;13.430;2023-04-06T08:51:29;101338.38;;;10.42;95.82
27294;BME280;14785;52.556;13.430;2023-04-06T08:53:59;101336.31;;;10.06;94.84
27294;BME280;14785;52.556;13.430;2023-04-06T08:56:27;101333.75;;;10.54;93.31
27294;BME280;14785;52.556;13.430;2023-04-06T08:58:53;101324.34;;;10.21;94.23
27294;BME280;14785;52.556;13.430;2023-04-06T09:01:27;101335.00;;;10.40;93.54
27294;BME280;14785;52.556;13.430;2023-04-06T09:03:57;101329.00;;;10.19;89.45
27294;BME280;14785;52.556;13.430;2023-04-06T09:06:24;101332.78;;;10.45;88.62
27294;BME280;14785;52.556;13.430;2023-04-06T09:08:51;101328.72;;;10.89;86.14
27294;BME280;14785;52.556;13.430;2023-04-06T09:11:17;101332.59;;;10.18;91.25
27294;BME280;14785;52.556;13.430;2023-04-06T09:13:51;101327.88;;;10.60;88.68
27294;BME280;14785;52.556;13.430;2023-04-06T09:16:17;101335.00;;;10.97;87.14
27294;BME280;14785;52.556;13.430;2023-04-06T09:18:44;101329.22;;;11.11;85.75
27294;BME280;14785;52.556;13.430;2023-04-06T09:21:09;101325.84;;;11.28;83.58
27294;BME280;14785;52.556;13.430;2023-04-06T09:23:35;101319.03;;;11.43;84.12
27294;BME280;14785;52.556;13.430;2023-04-06T09:26:06;101321.78;;;11.61;82.36
27294;BME280;14785;52.556;13.430;2023-04-06T09:31:15;101315.84;;;11.77;84.08
27294;BME280;14785;52.556;13.430;2023-04-06T09:33:44;101313.41;;;11.46;77.88
27294;BME280;14785;52.556;13.430;2023-04-06T09:36:10;101308.06;;;11.56;80.20
27294;BME280;14785;52.556;13.430;2023-04-06T09:38:54;101326.44;;;11.13;82.94
27294;BME280;14785;52.556;13.430;2023-04-06T09:43:50;101310.72;;;11.66;82.80
27294;BME280;14785;52.556;13.430;2023-04-06T09:46:17;101304.41;;;11.67;82.62
27294;BME280;14785;52.556;13.430;2023-04-06T09:48:43;101301.78;;;12.29;78.47
27294;BME280;14785;52.556;13.430;2023-04-06T09:51:11;101299.22;;;11.92;78.14
27294;BME280;14785;52.556;13.430;2023-04-06T09:53:41;101307.03;;;11.76;81.03
27294;BME280;14785;52.556;13.430;2023-04-06T09:56:11;101296.75;;;12.26;78.73
27294;BME280;14785;52.556;13.430;2023-04-06T09:58:40;101294.44;;;12.31;78.46
27294;BME280;14785;52.556;13.430;2023-04-06T10:01:12;101292.47;;;12.33;77.26
27294;BME280;14785;52.556;13.430;2023-04-06T10:04:00;101285.47;;;12.92;74.53
27294;BME280;14785;52.556;13.430;2023-04-06T10:06:31;101290.88;;;12.83;75.57
27294;BME280;14785;52.556;13.430;2023-04-06T10:09:02;101280.31;;;13.50;74.52
27294;BME280;14785;52.556;13.430;2023-04-06T10:11:30;101286.72;;;13.57;72.38
27294;BME280;14785;52.556;13.430;2023-04-06T10:13:56;101286.72;;;13.57;68.94
27294;BME280;14785;52.556;13.430;2023-04-06T10:16:22;101290.38;;;13.22;65.08
27294;BME280;14785;52.556;13.430;2023-04-06T10:18:53;101291.22;;;14.06;63.31
27294;BME280;14785;52.556;13.430;2023-04-06T10:21:21;101295.09;;;14.20;59.67
27294;BME280;14785;52.556;13.430;2023-04-06T10:23:59;101289.25;;;14.08;59.00
27294;BME280;14785;52.556;13.430;2023-04-06T10:26:26;101299.75;;;13.26;63.39
27294;BME280;14785;52.556;13.430;2023-04-06T10:28:51;101287.38;;;13.25;61.89
27294;BME280;14785;52.556;13.430;2023-04-06T10:31:26;101286.91;;;14.21;62.90
27294;BME280;14785;52.556;13.430;2023-04-06T10:33:56;101275.53;;;15.78;55.10
27294;BME280;14785;52.556;13.430;2023-04-06T10:36:24;101292.69;;;14.90;53.62
27294;BME280;14785;52.556;13.430;2023-04-06T10:38:55;101284.97;;;14.71;54.87
27294;BME280;14785;52.556;13.430;2023-04-06T10:41:22;101280.56;;;15.18;54.07
27294;BME280;14785;52.556;13.430;2023-04-06T10:43:55;101285.31;;;14.36;56.95
27294;BME280;14785;52.556;13.430;2023-04-06T10:46:29;101287.97;;;14.92;56.77
27294;BME280;14785;52.556;13.430;2023-04-06T10:48:55;101289.66;;;14.29;53.48
27294;BME280;14785;52.556;13.430;2023-04-06T10:51:25;101288.28;;;14.25;54.19
27294;BME280;14785;52.556;13.430;2023-04-06T10:53:53;101285.31;;;14.68;53.44
27294;BME280;14785;52.556;13.430;2023-04-06T10:56:22;101277.53;;;15.38;50.65
27294;BME280;14785;52.556;13.430;2023-04-06T10:58:51;101275.66;;;16.46;51.95
27294;BME280;14785;52.556;13.430;2023-04-06T11:01:18;101281.38;;;16.65;48.16
27294;BME280;14785;52.556;13.430;2023-04-06T11:03:45;101281.56;;;16.33;52.77
27294;BME280;14785;52.556;13.430;2023-04-06T11:06:17;101273.53;;;16.78;51.40
27294;BME280;14785;52.556;13.430;2023-04-06T11:08:43;101269.50;;;17.84;47.49
27294;BME280;14785;52.556;13.430;2023-04-06T11:11:14;101268.53;;;18.06;47.22
27294;BME280;14785;52.556;13.430;2023-04-06T11:13:48;101263.16;;;18.06;42.40
27294;BME280;14785;52.556;13.430;2023-04-06T11:18:59;101263.91;;;16.84;39.12
27294;BME280;14785;52.556;13.430;2023-04-06T11:26:57;101266.44;;;17.00;41.50
27294;BME280;14785;52.556;13.430;2023-04-06T11:29:25;101262.19;;;17.05;42.68
27294;BME280;14785;52.556;13.430;2023-04-06T11:31:53;101259.91;;;17.32;45.36
27294;BME280;14785;52.556;13.430;2023-04-06T11:34:20;101252.50;;;17.98;44.47
27294;BME280;14785;52.556;13.430;2023-04-06T11:36:48;101267.72;;;19.18;39.72
27294;BME280;14785;52.556;13.430;2023-04-06T11:39:18;101255.09;;;20.06;43.18
27294;BME280;14785;52.556;13.430;2023-04-06T11:41:52;101261.88;;;18.86;39.87
27294;BME280;14785;52.556;13.430;2023-04-06T11:46:57;101244.31;;;18.06;39.40
27294;BME280;14785;52.556;13.430;2023-04-06T11:49:29;101254.44;;;18.88;43.93
27294;BME280;14785;52.556;13.430;2023-04-06T11:51:59;101243.69;;;20.04;42.26
27294;BME280;14785;52.556;13.430;2023-04-06T11:54:31;101242.59;;;19.45;37.81
27294;BME280;14785;52.556;13.430;2023-04-06T11:56:57;101248.81;;;18.62;38.30
27294;BME280;14785;52.556;13.430;2023-04-06T11:59:23;101246.31;;;19.10;40.25
27294;BME280;14785;52.556;13.430;2023-04-06T12:01:48;101240.25;;;18.52;36.64
27294;BME280;14785;52.556;13.430;2023-04-06T12:04:14;101233.16;;;18.72;40.46
27294;BME280;14785;52.556;13.430;2023-04-06T12:06:39;101239.72;;;18.63;38.13
27294;BME280;14785;52.556;13.430;2023-04-06T12:09:05;101236.44;;;16.59;39.37
27294;BME280;14785;52.556;13.430;2023-04-06T12:11:31;101232.81;;;17.33;39.70
27294;BME280;14785;52.556;13.430;2023-04-06T12:13:58;101232.44;;;17.07;40.21
27294;BME280;14785;52.556;13.430;2023-04-06T12:16:26;101234.94;;;18.02;39.67
27294;BME280;14785;52.556;13.430;2023-04-06T12:18:52;101232.88;;;18.40;42.37
27294;BME280;14785;52.556;13.430;2023-04-06T12:21:17;101226.97;;;17.44;41.35
27294;BME280;14785;52.556;13.430;2023-04-06T12:23:43;101236.97;;;16.92;40.21
27294;BME280;14785;52.556;13.430;2023-04-06T12:26:11;101233.22;;;18.16;43.84
27294;BME280;14785;52.556;13.430;2023-04-06T12:28:36;101231.66;;;19.25;39.14
27294;BME280;14785;52.556;13.430;2023-04-06T12:31:01;101231.50;;;18.71;40.75
27294;BME280;14785;52.556;13.430;2023-04-06T12:33:27;101232.56;;;18.49;39.90
27294;BME280;14785;52.556;13.430;2023-04-06T12:35:52;101228.53;;;16.95;48.16
27294;BME280;14785;52.556;13.430;2023-04-06T12:38:18;101223.88;;;17.76;42.56
27294;BME280;14785;52.556;13.430;2023-04-06T12:40:43;101225.22;;;18.64;39.96
27294;BME280;14785;52.556;13.430;2023-04-06T12:43:10;101233.69;;;19.17;44.60
27294;BME280;14785;52.556;13.430;2023-04-06T12:45:38;101214.06;;;18.67;38.54
27294;BME280;14785;52.556;13.430;2023-04-06T12:48:04;101220.38;;;20.03;39.39
27294;BME280;14785;52.556;13.430;2023-04-06T12:50:29;101221.06;;;20.11;36.57
27294;BME280;14785;52.556;13.430;2023-04-06T12:52:55;101206.41;;;19.80;36.81